Time;durP1;ratioP1;P1;durP2;ratioP2;P2;SDS_P1;SDS_P2;PMS_P1;PMS_P2;Temp;Humidity;BMP_temperature;BMP_pressure;BME280_temperature;BME280_humidity;BME280_pressure;Samples;Min_cycle;Max_cycle;Signal;HPM_P1;HPM_P2
2022/08/24 00:01:52;;;;;;;10.10;9.20;;;;;;;18.48;81.75;94668.31;5013865;28;20226;-61
2022/08/24 00:04:17;;;;;;;10.95;9.85;;;;;;;18.43;82.21;94667.28;5016048;28;20306;-60
2022/08/24 00:06:43;;;;;;;10.35;9.35;;;;;;;18.44;82.07;94677.75;5009748;28;20225;-59
2022/08/24 00:09:08;;;;;;;11.82;10.13;;;;;;;18.49;81.63;94672.59;5006030;28;20230;-60
2022/08/24 00:11:34;;;;;;;9.93;8.82;;;;;;;18.48;81.58;94668.31;5011821;28;20711;-61
2022/08/24 00:14:00;;;;;;;10.70;9.70;;;;;;;18.24;82.79;94680.44;5019507;28;20227;-61
2022/08/24 00:16:25;;;;;;;12.65;10.18;;;;;;;18.35;82.00;94683.50;5009295;28;20207;-61
2022/08/24 00:18:51;;;;;;;12.20;10.73;;;;;;;18.28;82.39;94683.47;5010253;28;20195;-61
2022/08/24 00:21:18;;;;;;;11.40;10.23;;;;;;;18.38;81.88;94686.53;5011073;28;20329;-61
2022/08/24 00:23:44;;;;;;;12.18;10.23;;;;;;;18.35;81.81;94688.81;5011523;28;20218;-61
2022/08/24 00:26:09;;;;;;;11.70;10.45;;;;;;;18.40;81.16;94703.13;5009198;28;20241;-61
2022/08/24 00:28:36;;;;;;;10.88;9.77;;;;;;;18.43;80.65;94707.22;5010523;28;20195;-61
2022/08/24 00:31:02;;;;;;;11.15;10.15;;;;;;;18.40;80.62;94708.44;5007532;28;20214;-61
2022/08/24 00:33:27;;;;;;;10.95;9.82;;;;;;;18.29;80.57;94709.91;5011239;28;20470;-61
2022/08/24 00:36:21;;;;;;;12.32;10.43;;;;;;;18.37;80.29;94708.88;5011239;28;20250;-60
2022/08/24 00:38:47;;;;;;;11.25;10.25;;;;;;;18.36;80.02;94709.06;5006775;28;20250;-61
2022/08/24 00:41:14;;;;;;;12.38;11.15;;;;;;;18.34;80.25;94713.81;5010960;28;20695;-61
2022/08/24 00:43:53;;;;;;;12.20;11.02;;;;;;;18.37;80.09;94708.88;5010478;28;20575;-61
2022/08/24 00:46:41;;;;;;;14.05;12.07;;;;;;;18.39;79.86;94719.28;5010802;28;20201;-61
2022/08/24 00:49:18;;;;;;;12.52;11.43;;;;;;;18.35;80.13;94716.25;5008369;28;20235;-61
2022/08/24 00:51:59;;;;;;;13.40;12.25;;;;;;;18.36;80.33;94715.19;5008446;28;20253;-60
2022/08/24 00:54:28;;;;;;;14.15;12.75;;;;;;;18.30;80.56;94716.84;5009129;28;20610;-61
2022/08/24 00:56:57;;;;;;;13.50;12.20;;;;;;;18.16;81.79;94714.44;5021117;28;20597;-61
2022/08/24 00:59:29;;;;;;;15.10;13.45;;;;;;;18.17;81.93;94719.53;5015606;28;20253;-61
2022/08/24 01:01:57;;;;;;;13.82;12.52;;;;;;;18.25;81.86;94723.81;5008490;28;20223;-61
2022/08/24 01:04:28;;;;;;;14.65;13.18;;;;;;;18.25;81.92;94721.97;5010326;28;20214;-61
2022/08/24 01:06:56;;;;;;;14.40;13.00;;;;;;;18.24;82.15;94725.66;5011412;28;20207;-61
2022/08/24 01:09:21;;;;;;;14.45;12.95;;;;;;;18.20;82.47;94723.63;5012681;28;20287;-61
2022/08/24 01:11:48;;;;;;;15.07;13.52;;;;;;;18.10;83.26;94729.38;5010980;28;20455;-61
2022/08/24 01:14:16;;;;;;;14.52;13.15;;;;;;;18.10;83.50;94729.38;5009505;28;20223;-60
2022/08/24 01:19:34;;;;;;;16.17;14.48;;;;;;;18.11;83.88;94741.66;5008575;28;20517;-62
2022/08/24 01:22:21;;;;;;;18.63;13.55;;;;;;;18.04;84.26;94744.31;5009885;28;20205;-60
2022/08/24 01:24:46;;;;;;;13.95;12.55;;;;;;;18.01;84.72;94741.22;5012908;28;20223;-61
2022/08/24 01:27:14;;;;;;;17.02;14.07;;;;;;;17.99;84.55;94748.59;5010981;28;20421;-61
2022/08/24 01:29:41;;;;;;;15.73;14.20;;;;;;;17.96;84.71;94743.69;5009498;28;20718;-61
2022/08/24 01:32:07;;;;;;;16.15;14.70;;;;;;;18.02;84.60;94738.38;5009391;28;20223;-61
2022/08/24 01:34:33;;;;;;;18.52;16.67;;;;;;;18.05;84.72;94745.13;5006407;28;20203;-61
2022/08/24 01:36:59;;;;;;;20.17;18.17;;;;;;;18.12;84.19;94747.78;5007439;28;20261;-61
2022/08/24 01:39:31;;;;;;;22.33;20.05;;;;;;;18.19;84.10;94753.94;5006764;28;20235;-61
2022/08/24 01:41:58;;;;;;;23.25;21.10;;;;;;;18.18;83.90;94744.31;5003415;28;20219;-61
2022/08/24 01:44:27;;;;;;;23.80;21.30;;;;;;;18.33;83.39;94752.88;5008624;28;20226;-61
2022/08/24 01:46:54;;;;;;;26.60;24.00;;;;;;;18.37;82.91;94748.81;5008127;28;20487;-60
2022/08/24 01:49:34;;;;;;;26.92;24.00;;;;;;;18.34;83.25;94754.53;5006893;28;20195;-62
2022/08/24 01:51:59;;;;;;;30.42;27.13;;;;;;;18.28;83.73;94750.88;5004221;28;20234;-61
2022/08/24 01:54:26;;;;;;;31.98;28.75;;;;;;;18.29;83.69;94744.50;5023436;28;20779;-61
2022/08/24 01:56:52;;;;;;;34.17;30.48;;;;;;;18.35;83.59;94753.50;5002808;28;20253;-61
2022/08/24 02:02:21;;;;;;;33.00;29.48;;;;;;;18.19;84.22;94753.94;5009749;28;20254;-61
2022/08/24 02:04:47;;;;;;;32.58;29.35;;;;;;;18.21;84.40;94759.88;5012292;28;20907;-60
2022/08/24 02:07:12;;;;;;;29.50;26.55;;;;;;;18.16;84.71;94749.84;5010958;28;20286;-61
2022/08/24 02:09:39;;;;;;;29.52;26.42;;;;;;;18.20;84.79;94755.56;5006756;28;20392;-62
2022/08/24 02:12:05;;;;;;;35.10;28.88;;;;;;;18.26;84.71;94760.88;5007217;28;20233;-61
2022/08/24 02:14:31;;;;;;;34.20;30.70;;;;;;;18.24;84.28;94762.94;5008961;28;20224;-59
2022/08/24 02:16:57;;;;;;;35.88;32.20;;;;;;;18.29;84.13;94768.47;5006938;28;20772;-61
2022/08/24 02:19:24;;;;;;;36.33;31.95;;;;;;;18.33;83.75;94771.53;5012529;28;20210;-59
2022/08/24 02:21:50;;;;;;;35.25;31.55;;;;;;;18.36;83.52;94781.75;5007397;28;20204;-60
2022/08/24 02:24:15;;;;;;;34.55;30.92;;;;;;;18.33;83.75;94782.16;5003440;28;20290;-60
2022/08/24 02:26:41;;;;;;;36.67;32.92;;;;;;;18.22;84.18;94777.47;5006535;28;20772;-60
2022/08/24 02:29:06;;;;;;;36.90;33.05;;;;;;;18.23;84.24;94779.94;5005862;28;20277;-60
2022/08/24 02:31:33;;;;;;;35.42;31.80;;;;;;;18.19;84.59;94783.19;5007984;28;20207;-60
2022/08/24 02:33:58;;;;;;;35.95;32.35;;;;;;;18.16;84.90;94778.28;5010738;28;20216;-60
2022/08/24 02:36:24;;;;;;;36.20;32.40;;;;;;;18.14;84.96;94783.81;5009091;28;20614;-60
2022/08/24 02:38:49;;;;;;;38.38;32.75;;;;;;;18.22;84.66;94785.44;5009646;28;20521;-61
2022/08/24 02:41:15;;;;;;;37.60;33.55;;;;;;;18.26;84.46;94776.03;5006462;28;20230;-60
2022/08/24 02:43:40;;;;;;;38.20;31.80;;;;;;;18.20;84.58;94771.53;5008895;28;20512;-60
2022/08/24 02:46:06;;;;;;;36.20;31.88;;;;;;;18.17;85.24;94778.06;5008584;28;20231;-59
2022/08/24 02:48:31;;;;;;;33.90;30.45;;;;;;;18.16;85.49;94781.78;5010436;28;20276;-60
2022/08/24 02:50:57;;;;;;;33.20;29.65;;;;;;;18.24;85.10;94776.25;5006435;28;20226;-60
2022/08/24 02:53:22;;;;;;;30.42;27.25;;;;;;;18.25;84.73;94779.72;5008633;28;20225;-61
2022/08/24 02:55:48;;;;;;;29.23;26.35;;;;;;;18.31;83.71;94786.91;5008012;28;20274;-60
2022/08/24 02:58:15;;;;;;;31.02;27.98;;;;;;;18.27;83.59;94780.34;5006195;28;20279;-60
2022/08/24 03:00:43;;;;;;;29.45;26.23;;;;;;;18.27;83.51;94785.66;5008593;28;20215;-60
2022/08/24 03:03:10;;;;;;;28.02;25.33;;;;;;;18.23;83.51;94789.75;5008478;28;20226;-60
2022/08/24 03:05:36;;;;;;;28.33;25.58;;;;;;;18.23;83.70;94781.75;5008451;28;20222;-60
2022/08/24 03:08:02;;;;;;;28.58;25.58;;;;;;;18.23;83.38;94776.44;5004730;28;20750;-60
2022/08/24 03:10:28;;;;;;;27.83;25.20;;;;;;;18.17;83.52;94787.91;5008125;28;20280;-60
2022/08/24 03:12:53;;;;;;;28.65;25.63;;;;;;;18.19;83.41;94783.19;5013016;28;20207;-60
2022/08/24 03:15:21;;;;;;;28.25;25.40;;;;;;;18.16;83.32;94784.44;5005530;28;20237;-59
2022/08/24 03:17:47;;;;;;;26.73;24.02;;;;;;;18.13;83.46;94787.50;5005903;28;20277;-60
2022/08/24 03:20:15;;;;;;;26.67;24.17;;;;;;;18.18;83.09;94789.56;5024260;28;20235;-59
2022/08/24 03:22:41;;;;;;;27.95;25.00;;;;;;;18.19;83.02;94791.19;5009109;28;20223;-60
2022/08/24 03:25:08;;;;;;;26.00;23.33;;;;;;;18.08;83.08;94785.44;5008135;28;20333;-60
2022/08/24 03:27:34;;;;;;;26.67;24.27;;;;;;;18.10;83.03;94790.56;5008880;28;20227;-60
2022/08/24 03:30:00;;;;;;;25.30;23.02;;;;;;;18.07;83.04;94789.13;5004581;28;20871;-60
2022/08/24 03:32:26;;;;;;;25.23;22.77;;;;;;;18.06;83.06;94789.31;5003278;28;20219;-60
2022/08/24 03:34:53;;;;;;;25.35;22.83;;;;;;;18.13;82.61;94792.00;5005813;28;20223;-60
2022/08/24 03:37:19;;;;;;;26.10;23.60;;;;;;;18.14;82.27;94793.63;5011474;28;21002;-61
2022/08/24 03:39:46;;;;;;;25.98;23.35;;;;;;;18.10;82.12;94795.09;5000491;28;20215;-60
2022/08/24 03:42:12;;;;;;;24.02;21.70;;;;;;;18.13;81.81;94797.34;5007406;28;20301;-61
2022/08/24 03:44:37;;;;;;;25.75;22.85;;;;;;;18.13;81.91;94797.34;5009253;28;20226;-61
2022/08/24 03:47:03;;;;;;;24.30;22.00;;;;;;;18.07;82.24;94798.97;5005404;28;20226;-60
2022/08/24 03:49:28;;;;;;;23.13;20.73;;;;;;;18.07;82.24;94804.28;5007566;28;20566;-61
2022/08/24 03:51:54;;;;;;;21.63;19.63;;;;;;;18.10;82.06;94798.56;5006236;28;20218;-61
2022/08/24 03:54:19;;;;;;;17.13;15.43;;;;;;;18.16;81.84;94807.56;5005758;28;20223;-61
2022/08/24 03:56:45;;;;;;;18.75;16.95;;;;;;;18.19;81.19;94807.16;5012341;28;20317;-60
2022/08/24 03:59:10;;;;;;;18.73;16.90;;;;;;;18.16;81.16;94803.06;5010694;28;20223;-61
2022/08/24 04:01:37;;;;;;;17.10;15.40;;;;;;;18.18;81.03;94797.53;5003950;28;20321;-61
2022/08/24 04:04:04;;;;;;;17.50;15.95;;;;;;;18.26;80.42;94813.31;5005957;28;20308;-61
2022/08/24 04:06:29;;;;;;;17.83;16.27;;;;;;;18.28;80.54;94803.25;4999420;28;20261;-61
2022/08/24 04:09:20;;;;;;;15.98;14.57;;;;;;;18.33;80.17;94806.13;5025138;28;20222;-61
2022/08/24 04:11:46;;;;;;;16.88;15.48;;;;;;;18.33;79.98;94803.47;5011732;28;20241;-61
2022/08/24 04:14:13;;;;;;;18.67;16.83;;;;;;;18.34;80.15;94809.63;5008354;28;20219;-61
2022/08/24 04:16:39;;;;;;;20.98;19.02;;;;;;;18.36;80.11;94811.03;5008569;28;20207;-60
2022/08/24 04:19:04;;;;;;;19.65;17.70;;;;;;;18.45;79.81;94812.47;5013578;28;20214;-61
2022/08/24 04:21:33;;;;;;;20.08;18.30;;;;;;;18.47;79.70;94805.13;5009359;28;20227;-61
2022/08/24 04:24:00;;;;;;;19.92;17.35;;;;;;;18.49;79.34;94805.69;5009547;28;20231;-61
2022/08/24 04:26:29;;;;;;;17.30;15.82;;;;;;;18.57;79.23;94806.53;5009452;28;20326;-61
2022/08/24 04:28:55;;;;;;;19.17;17.27;;;;;;;18.66;79.13;94802.66;5007184;28;20215;-60
2022/08/24 04:31:21;;;;;;;18.23;16.42;;;;;;;18.58;79.31;94806.34;5013737;28;20218;-61
2022/08/24 04:33:48;;;;;;;15.93;14.50;;;;;;;18.60;78.93;94809.59;5008733;28;20230;-61
2022/08/24 04:36:15;;;;;;;16.73;15.05;;;;;;;18.66;78.65;94811.44;5007531;28;20218;-60
2022/08/24 04:38:40;;;;;;;17.70;16.15;;;;;;;18.68;78.53;94809.41;5022392;28;20231;-63
2022/08/24 04:41:08;;;;;;;17.10;15.45;;;;;;;18.72;78.51;94813.28;5008414;28;20571;-59
2022/08/24 04:43:34;;;;;;;16.88;15.45;;;;;;;18.76;78.53;94811.03;5007270;28;20220;-60
2022/08/24 04:46:07;;;;;;;15.77;14.13;;;;;;;18.81;78.29;94816.56;5005397;28;20265;-60
2022/08/24 04:48:33;;;;;;;16.48;14.98;;;;;;;18.84;77.31;94816.13;5007697;28;20218;-61
2022/08/24 04:51:05;;;;;;;12.32;11.32;;;;;;;19.00;76.66;94817.53;5005494;28;20277;-60
2022/08/24 04:53:31;;;;;;;15.15;13.80;;;;;;;19.02;76.29;94818.16;5012791;28;20242;-60
2022/08/24 04:55:58;;;;;;;15.25;13.75;;;;;;;19.02;76.71;94820.81;5013431;28;20222;-61
2022/08/24 04:58:23;;;;;;;15.75;14.25;;;;;;;19.10;76.56;94819.78;5010134;28;20233;-65
2022/08/24 05:00:49;;;;;;;14.63;13.27;;;;;;;19.23;75.52;94813.59;5009600;28;20317;-64
2022/08/24 05:03:15;;;;;;;12.10;11.02;;;;;;;19.11;74.82;94816.94;5007782;28;20759;-63
2022/08/24 05:05:43;;;;;;;12.18;10.93;;;;;;;19.20;74.24;94804.19;5006128;28;20242;-63
2022/08/24 05:08:09;;;;;;;14.98;13.55;;;;;;;19.38;75.32;94809.66;5006573;28;20229;-63
2022/08/24 05:10:41;;;;;;;13.60;12.30;;;;;;;19.44;75.04;94813.31;5010651;28;20939;-62
2022/08/24 05:13:07;;;;;;;15.10;13.55;;;;;;;19.46;75.49;94823.75;5009572;28;20199;-62
2022/08/24 05:15:33;;;;;;;12.93;11.82;;;;;;;19.46;74.27;94815.75;5008546;28;20225;-62
2022/08/24 05:17:59;;;;;;;11.77;10.75;;;;;;;19.48;74.22;94809.19;5010151;28;20587;-61
2022/08/24 05:20:26;;;;;;;13.60;12.15;;;;;;;19.57;73.82;94809.78;5006617;28;21048;-61
2022/08/24 05:22:52;;;;;;;13.63;12.02;;;;;;;19.56;74.29;94810.78;5007451;28;20219;-61
2022/08/24 05:25:19;;;;;;;12.75;11.55;;;;;;;19.31;75.83;94806.19;5008497;28;20211;-61
2022/08/24 05:27:44;;;;;;;13.73;12.50;;;;;;;19.57;75.99;94809.78;5008003;28;20241;-61
2022/08/24 05:30:10;;;;;;;13.63;12.27;;;;;;;19.54;76.13;94810.19;5008017;28;20224;-62
2022/08/24 05:32:37;;;;;;;13.15;10.75;;;;;;;19.68;75.14;94814.47;5008691;28;20313;-62
2022/08/24 05:35:03;;;;;;;11.40;10.32;;;;;;;19.89;74.05;94810.66;5009239;28;20226;-61
2022/08/24 05:37:30;;;;;;;11.10;10.00;;;;;;;19.85;73.50;94804.09;5007834;28;20234;-62
2022/08/24 05:39:56;;;;;;;10.68;9.88;;;;;;;19.93;73.16;94797.72;5009567;28;20215;-63
2022/08/24 05:42:21;;;;;;;10.52;8.75;;;;;;;20.08;72.22;94808.91;5011391;28;20234;-63
2022/08/24 05:44:47;;;;;;;9.60;8.45;;;;;;;20.16;70.89;94805.16;5012491;28;20219;-63
2022/08/24 05:47:12;;;;;;;9.45;8.65;;;;;;;20.13;70.73;94793.06;5005544;28;20236;-63
2022/08/24 05:49:38;;;;;;;10.98;7.80;;;;;;;20.26;69.89;94795.63;5008665;28;20221;-63
2022/08/24 05:52:04;;;;;;;8.93;8.00;;;;;;;20.22;69.93;94796.28;5005536;28;20203;-62
2022/08/24 05:54:30;;;;;;;9.00;8.30;;;;;;;20.20;70.17;94803.69;5007854;28;20305;-64
2022/08/24 05:56:56;;;;;;;9.63;8.75;;;;;;;20.29;69.54;94807.72;5008542;28;20226;-63
2022/08/24 05:59:22;;;;;;;9.38;8.48;;;;;;;20.18;70.87;94803.06;5009171;28;20226;-63
2022/08/24 06:01:48;;;;;;;8.82;8.05;;;;;;;20.23;70.81;94808.56;5007464;28;20218;-63
2022/08/24 06:04:13;;;;;;;8.82;8.13;;;;;;;20.30;71.05;94803.19;5007801;28;20249;-63
2022/08/24 06:06:39;;;;;;;8.90;7.93;;;;;;;20.31;70.14;94800.28;5006505;28;20262;-63
2022/08/24 06:09:05;;;;;;;9.35;8.50;;;;;;;20.33;70.15;94797.44;5009002;28;20576;-62
2022/08/24 06:11:34;;;;;;;8.68;7.90;;;;;;;20.36;69.71;94799.66;5002600;28;20382;-62
2022/08/24 06:14:10;;;;;;;8.98;8.13;;;;;;;20.45;70.19;94803.72;5011239;28;20237;-62
2022/08/24 06:16:37;;;;;;;9.32;8.43;;;;;;;20.33;69.81;94802.75;5002901;28;20692;-62
2022/08/24 06:19:05;;;;;;;9.05;8.35;;;;;;;20.44;69.98;94804.72;5011663;28;20213;-62
2022/08/24 06:21:31;;;;;;;10.18;9.18;;;;;;;20.47;69.75;94804.28;5008242;28;20222;-63
2022/08/24 06:23:58;;;;;;;9.63;8.70;;;;;;;20.53;69.25;94798.09;5007827;28;20226;-64
2022/08/24 06:29:09;;;;;;;9.90;8.88;;;;;;;20.77;67.83;94803.63;5006993;28;20761;-62
2022/08/24 06:31:40;;;;;;;9.43;8.52;;;;;;;20.89;67.93;94797.34;5010954;28;20203;-63
2022/08/24 06:34:07;;;;;;;9.23;7.95;;;;;;;20.87;68.10;94798.63;5004021;28;20214;-63
2022/08/24 06:36:33;;;;;;;11.57;10.45;;;;;;;20.99;67.94;94796.03;5006356;28;20235;-63
2022/08/24 06:38:58;;;;;;;11.20;10.20;;;;;;;20.99;67.53;94791.50;5006524;28;20249;-64
2022/08/24 06:41:25;;;;;;;12.02;10.93;;;;;;;21.01;66.98;94800.13;5003135;28;20273;-63
2022/08/24 06:43:51;;;;;;;10.60;9.50;;;;;;;21.03;67.25;94802.56;5008143;28;20241;-63
2022/08/24 06:46:17;;;;;;;10.35;8.98;;;;;;;21.06;66.41;94802.97;5006211;28;20317;-63
2022/08/24 06:48:43;;;;;;;9.98;9.05;;;;;;;21.19;65.96;94801.97;5006103;28;20454;-63
2022/08/24 06:51:11;;;;;;;9.52;8.65;;;;;;;21.27;65.53;94808.88;5002141;28;20235;-63
2022/08/24 06:53:37;;;;;;;9.50;8.57;;;;;;;21.41;65.34;94813.09;4999678;28;20250;-65
2022/08/24 06:56:03;;;;;;;8.77;7.88;;;;;;;21.39;65.16;94811.69;5006550;28;20219;-63
2022/08/24 06:58:28;;;;;;;9.40;8.32;;;;;;;21.64;64.61;94814.25;5005863;28;20211;-63
2022/08/24 07:00:58;;;;;;;8.15;7.43;;;;;;;21.53;65.02;94816.63;5006642;28;20223;-62
2022/08/24 07:03:24;;;;;;;8.02;7.32;;;;;;;21.69;64.84;94817.06;5011924;28;20227;-63
2022/08/24 07:05:56;;;;;;;8.43;7.63;;;;;;;21.69;64.49;94822.41;5007416;28;20218;-63
2022/08/24 07:08:22;;;;;;;10.85;7.65;;;;;;;21.71;64.39;94823.81;5005842;28;20231;-64
2022/08/24 07:10:48;;;;;;;8.70;7.97;;;;;;;21.83;63.13;94823.88;5003652;28;20281;-63
2022/08/24 07:13:13;;;;;;;8.05;7.45;;;;;;;21.69;63.80;94825.91;5001088;28;20691;-64
2022/08/24 07:15:42;;;;;;;9.80;8.80;;;;;;;21.86;63.16;94833.31;5007211;28;20223;-64
2022/08/24 07:18:15;;;;;;;7.68;6.93;;;;;;;22.02;61.88;94832.66;5006530;28;20317;-62
2022/08/24 07:20:41;;;;;;;7.25;6.57;;;;;;;21.95;61.77;94835.44;5004474;28;20253;-63
2022/08/24 07:23:07;;;;;;;7.95;6.43;;;;;;;22.05;60.39;94836.75;5023896;28;20283;-61
2022/08/24 07:25:34;;;;;;;7.15;6.63;;;;;;;21.80;61.31;94846.53;5004711;28;20203;-62
2022/08/24 07:28:00;;;;;;;7.18;6.47;;;;;;;21.76;61.53;94847.25;5010320;28;20237;-62
2022/08/24 07:30:29;;;;;;;8.20;6.95;;;;;;;21.91;61.90;94841.47;5007936;28;20250;-61
2022/08/24 07:32:56;;;;;;;8.00;7.30;;;;;;;22.01;61.81;94836.41;5005924;28;20231;-61
2022/08/24 07:35:22;;;;;;;7.25;6.60;;;;;;;22.23;60.98;94834.03;5008377;28;20226;-62
2022/08/24 07:37:49;;;;;;;7.75;6.20;;;;;;;22.37;60.09;94831.97;5003004;28;20293;-61
2022/08/24 07:40:15;;;;;;;7.20;6.50;;;;;;;22.34;59.34;94827.91;5007436;28;20219;-62
2022/08/24 07:42:41;;;;;;;6.22;5.72;;;;;;;22.37;59.65;94830.16;5003480;28;20273;-63
2022/08/24 07:45:07;;;;;;;6.40;5.88;;;;;;;22.58;58.06;94831.44;5009532;28;20236;-61
2022/08/24 07:47:33;;;;;;;6.55;5.90;;;;;;;22.67;57.35;94835.44;5007278;28;20288;-62
2022/08/24 07:49:58;;;;;;;6.18;5.65;;;;;;;22.75;57.27;94834.28;4993623;28;20223;-61
2022/08/24 07:52:24;;;;;;;6.93;6.00;;;;;;;22.99;57.01;94820.88;5007091;28;20297;-61
2022/08/24 07:54:49;;;;;;;5.93;5.43;;;;;;;22.97;56.11;94826.50;5010192;28;20281;-61
2022/08/24 07:57:15;;;;;;;5.70;5.30;;;;;;;23.04;55.47;94823.69;5006379;28;20277;-61
2022/08/24 07:59:41;;;;;;;6.18;5.57;;;;;;;22.97;55.93;94817.63;5009013;28;20238;-62
2022/08/24 08:02:09;;;;;;;5.90;5.45;;;;;;;23.08;55.86;94812.25;5009221;28;20285;-65
2022/08/24 08:04:35;;;;;;;5.60;5.10;;;;;;;23.20;54.97;94806.06;5001856;28;20198;-65
2022/08/24 08:07:00;;;;;;;5.60;5.10;;;;;;;23.33;55.63;94814.69;5007622;28;20269;-66
2022/08/24 08:09:26;;;;;;;5.90;5.30;;;;;;;23.43;55.72;94805.22;5007327;28;20258;-66
2022/08/24 08:11:52;;;;;;;7.72;5.90;;;;;;;23.56;55.80;94804.94;5006580;28;20463;-63
2022/08/24 08:14:17;;;;;;;6.32;5.78;;;;;;;23.65;55.50;94808.06;5001881;28;20227;-63
2022/08/24 08:16:43;;;;;;;6.50;5.90;;;;;;;23.55;56.12;94808.69;5010514;28;20233;-68
2022/08/24 08:19:08;;;;;;;5.88;5.38;;;;;;;23.39;56.84;94799.50;5013638;28;20789;-64
2022/08/24 08:24:23;;;;;;;7.63;5.82;;;;;;;23.98;55.09;94800.16;5010002;28;20263;-64
2022/08/24 08:26:49;;;;;;;7.30;6.00;;;;;;;24.37;54.04;94804.84;5010370;28;20218;-63
2022/08/24 08:29:17;;;;;;;5.95;5.38;;;;;;;24.37;53.89;94805.66;5008657;28;20217;-63
2022/08/24 08:31:42;;;;;;;6.28;5.78;;;;;;;24.07;54.49;94799.78;5008491;28;20667;-64
2022/08/24 08:34:08;;;;;;;5.95;5.22;;;;;;;24.15;53.71;94804.75;5009526;28;20283;-64
2022/08/24 08:36:34;;;;;;;5.93;5.43;;;;;;;24.16;53.32;94809.88;5008812;28;20222;-64
2022/08/24 08:39:00;;;;;;;8.90;5.85;;;;;;;24.11;53.47;94809.78;5011018;28;20233;-64
2022/08/24 08:41:47;;;;;;;6.28;5.78;;;;;;;24.20;52.87;94802.97;5008141;28;21531;-64
2022/08/24 08:44:43;;;;;;;5.40;4.90;;;;;;;24.42;51.85;94803.06;5007673;28;20322;-63
2022/08/24 08:47:14;;;;;;;5.10;4.70;;;;;;;24.39;51.94;94798.19;5007069;28;20227;-65
2022/08/24 08:50:05;;;;;;;4.88;4.28;;;;;;;24.47;51.44;94802.38;5008304;28;20209;-64
2022/08/24 08:52:36;;;;;;;4.85;4.45;;;;;;;24.43;51.91;94802.03;5009164;28;20203;-64
2022/08/24 08:55:19;;;;;;;4.65;4.22;;;;;;;24.30;50.39;94805.03;5011740;28;20206;-67
2022/08/24 08:57:54;;;;;;;4.25;3.95;;;;;;;24.31;50.46;94803.94;5014097;28;20246;-66
2022/08/24 09:00:23;;;;;;;4.90;4.50;;;;;;;24.19;51.20;94811.25;5007546;28;20918;-66
2022/08/24 09:03:16;;;;;;;6.93;4.40;;;;;;;24.24;51.55;94811.34;5010029;28;20734;-66
2022/08/24 09:06:03;;;;;;;6.80;4.38;;;;;;;24.47;50.77;94810.44;5006647;28;20223;-64
2022/08/24 09:08:57;;;;;;;4.53;4.22;;;;;;;24.51;49.70;94810.75;5008797;28;20234;-64
2022/08/24 09:11:31;;;;;;;4.57;4.18;;;;;;;24.27;50.15;94810.03;5007129;28;20361;-66
2022/08/24 09:14:14;;;;;;;5.38;4.80;;;;;;;24.54;50.41;94813.78;5008500;28;20299;-64
2022/08/24 09:17:12;;;;;;;4.90;4.40;;;;;;;24.74;51.03;94818.66;5007482;28;20241;-65
2022/08/24 09:20:11;;;;;;;5.90;4.95;;;;;;;25.13;49.10;94805.25;5004323;28;20613;-66
2022/08/24 09:22:42;;;;;;;6.03;5.07;;;;;;;25.27;48.18;94798.47;5007262;28;20207;-64
2022/08/24 09:25:55;;;;;;;5.35;4.82;;;;;;;25.39;49.05;94806.44;5007112;28;20206;-70
2022/08/24 09:29:02;;;;;;;5.18;4.68;;;;;;;25.54;47.01;94792.38;4965610;28;20720;-70
2022/08/24 09:31:53;;;;;;;5.18;4.78;;;;;;;25.60;47.45;94795.94;4879285;29;20317;-69
2022/08/24 09:34:24;;;;;;;5.18;4.70;;;;;;;25.57;47.09;94797.25;4842161;29;20765;-70
2022/08/24 09:37:15;;;;;;;5.57;4.97;;;;;;;25.63;46.73;94795.41;4840177;29;20776;-70
2022/08/24 09:40:16;;;;;;;5.15;4.65;;;;;;;25.58;47.20;94788.13;4856192;29;20228;-70
2022/08/24 09:43:20;;;;;;;6.20;4.72;;;;;;;25.46;47.77;94785.53;4841897;29;20239;-69
2022/08/24 09:45:54;;;;;;;5.40;4.88;;;;;;;25.67;47.97;94777.72;4785881;29;20387;-69
2022/08/24 09:48:41;;;;;;;5.22;4.72;;;;;;;25.82;48.13;94783.28;4789172;29;20230;-69
2022/08/24 09:51:28;;;;;;;4.93;4.32;;;;;;;26.02;46.22;94771.13;4791599;29;20287;-71
2022/08/24 09:57:32;;;;;;;5.43;4.93;;;;;;;25.98;45.90;94769.97;4803861;29;20381;-69
2022/08/24 10:00:16;;;;;;;5.70;5.03;;;;;;;26.16;45.06;94754.25;4805175;29;20238;-69
2022/08/24 10:02:44;;;;;;;6.78;5.10;;;;;;;26.05;45.11;94754.44;4799500;29;20231;-70
2022/08/24 10:05:12;;;;;;;5.95;4.47;;;;;;;26.09;44.83;94750.16;4799197;29;20248;-68
2022/08/24 10:07:57;;;;;;;4.50;4.10;;;;;;;26.14;44.04;94751.03;4837118;29;20231;-70
2022/08/24 10:10:51;;;;;;;6.40;5.20;;;;;;;26.35;43.97;94753.88;4886441;29;20229;-68
2022/08/24 10:13:37;;;;;;;4.75;4.22;;;;;;;26.46;44.28;94746.69;4876635;29;20253;-68
2022/08/24 10:16:54;;;;;;;5.30;4.80;;;;;;;26.55;41.61;94732.53;4835693;29;20305;-69
2022/08/24 10:20:00;;;;;;;5.65;4.95;;;;;;;26.61;42.17;94727.97;4742617;30;20244;-68
2022/08/24 10:22:53;;;;;;;4.70;4.30;;;;;;;26.83;41.71;94734.03;4755581;30;20223;-67
2022/08/24 10:25:27;;;;;;;5.28;4.43;;;;;;;26.89;43.28;94736.78;4778557;29;20219;-68
2022/08/24 10:28:32;;;;;;;5.72;4.80;;;;;;;26.97;43.11;94722.78;4781750;29;20234;-67
2022/08/24 10:31:08;;;;;;;4.38;4.03;;;;;;;27.63;42.74;94730.41;4766069;30;20239;-70
2022/08/24 10:34:10;;;;;;;4.07;3.78;;;;;;;28.01;41.29;94734.56;4780643;29;20334;-69
2022/08/24 10:36:48;;;;;;;7.40;4.63;;;;;;;27.98;41.51;94737.00;4766041;30;20258;-68
2022/08/24 10:39:42;;;;;;;4.88;4.38;;;;;;;28.21;41.16;94730.28;4781811;29;20238;-69
2022/08/24 10:42:10;;;;;;;4.40;4.00;;;;;;;28.63;40.89;94737.31;4768635;30;20273;-69
2022/08/24 10:45:02;;;;;;;4.78;4.20;;;;;;;28.55;38.23;94727.88;4765153;30;20233;-68
2022/08/24 10:47:34;;;;;;;4.95;4.20;;;;;;;28.71;37.20;94728.66;4779286;30;20280;-67
2022/08/24 10:50:15;;;;;;;4.57;4.05;;;;;;;28.50;37.30;94728.69;4790711;29;20360;-67
2022/08/24 10:52:50;;;;;;;6.07;4.65;;;;;;;28.09;38.81;94735.94;4834379;29;20227;-67
2022/08/24 10:55:28;;;;;;;6.93;4.75;;;;;;;28.05;38.99;94737.56;4965901;28;20216;-67
2022/08/24 10:58:12;;;;;;;5.28;4.50;;;;;;;28.20;37.86;94729.47;5002551;28;20230;-66
2022/08/24 11:00:38;;;;;;;5.75;4.63;;;;;;;28.59;38.04;94729.75;5009770;28;20773;-68
2022/08/24 11:03:20;;;;;;;6.22;5.35;;;;;;;28.35;39.14;94728.66;5007978;28;20321;-69
2022/08/24 11:05:54;;;;;;;5.38;4.70;;;;;;;28.59;39.78;94728.94;4996652;28;20226;-70
2022/08/24 11:08:25;;;;;;;5.25;4.45;;;;;;;28.97;39.67;94724.81;5006836;28;20218;-70
2022/08/24 11:11:05;;;;;;;7.57;4.90;;;;;;;28.88;39.94;94726.47;5001870;28;20285;-70
2022/08/24 11:13:32;;;;;;;5.10;4.60;;;;;;;28.78;40.10;94731.91;5009919;28;20203;-71
2022/08/24 11:16:00;;;;;;;5.85;4.70;;;;;;;28.61;40.37;94718.69;5008567;28;20273;-71
2022/08/24 11:18:46;;;;;;;6.55;5.25;;;;;;;28.03;41.10;94710.78;5011819;28;20227;-71
2022/08/24 11:21:30;;;;;;;4.97;4.47;;;;;;;27.97;40.83;94714.56;5009508;28;20222;-71
2022/08/24 11:24:01;;;;;;;7.43;5.20;;;;;;;27.87;41.78;94719.94;5013657;28;20230;-69
2022/08/24 11:26:26;;;;;;;5.50;4.38;;;;;;;28.26;41.00;94714.06;5010859;28;20242;-72
2022/08/24 11:28:59;;;;;;;5.60;4.47;;;;;;;28.38;41.33;94715.41;5014036;28;20264;-72
2022/08/24 11:31:32;;;;;;;8.35;4.75;;;;;;;28.47;39.19;94702.19;5006857;28;20290;-70
2022/08/24 11:34:04;;;;;;;5.70;5.18;;;;;;;28.82;38.87;94702.41;5010599;28;20198;-73
2022/08/24 11:36:34;;;;;;;6.38;4.57;;;;;;;29.05;39.05;94701.81;5009310;28;20222;-70
2022/08/24 11:39:20;;;;;;;5.57;4.53;;;;;;;29.00;39.90;94708.06;5010720;28;20223;-70
2022/08/24 11:42:27;;;;;;;8.05;4.82;;;;;;;29.06;39.30;94702.63;5004323;28;20292;-69
2022/08/24 11:44:58;;;;;;;5.22;4.63;;;;;;;28.96;39.90;94698.84;5009615;28;20214;-70
2022/08/24 11:47:40;;;;;;;5.85;4.72;;;;;;;28.81;39.53;94704.28;5010120;28;20617;-69
2022/08/24 11:50:13;;;;;;;5.95;5.10;;;;;;;28.72;39.37;94692.41;5009827;28;20233;-69
2022/08/24 11:52:44;;;;;;;5.53;5.03;;;;;;;28.63;40.21;94696.75;5008973;28;20252;-69
2022/08/24 11:56:06;;;;;;;9.07;5.35;;;;;;;28.74;41.35;94693.75;5009972;28;20204;-70
2022/08/24 11:58:55;;;;;;;6.85;4.88;;;;;;;28.27;42.76;94702.97;4946176;28;20291;-72